createdAt,value
2018-09-15T00:03:49.546Z,76.1
2018-09-15T00:08:52.007Z,76
2018-09-15T00:13:54.550Z,75.9
2018-09-15T00:18:56.876Z,75.9
2018-09-15T00:23:59.332Z,75.8
2018-09-15T00:29:01.789Z,75.8
2018-09-15T00:34:04.228Z,75.8
2018-09-15T00:39:06.639Z,76
2018-09-15T00:49:32.918Z,77
2018-09-15T01:14:45.679Z,76.3
2018-09-15T01:19:45.283Z,76
2018-09-15T01:24:48.699Z,75.8
2018-09-15T01:34:48.163Z,75.7
2018-09-15T01:39:54.543Z,75.6
2018-09-15T01:45:00.408Z,75.4
2018-09-15T01:49:47.192Z,75.1
2018-09-15T02:00:00.727Z,74.5
2018-09-15T02:05:18.608Z,74.3
2018-09-15T02:09:51.596Z,74.1
2018-09-15T02:14:54.356Z,74
2018-09-15T02:19:55.822Z,73.9
2018-09-15T02:24:57.884Z,73.6
2018-09-15T02:30:00.325Z,73.2
2018-09-15T02:35:02.799Z,72.9
2018-09-15T02:40:05.319Z,72.7
2018-09-15T02:45:07.685Z,72.3
2018-09-15T02:50:10.105Z,72.3
2018-09-15T02:55:12.547Z,72.2
2018-09-15T03:00:14.982Z,72.2
2018-09-15T03:05:17.461Z,72.1
2018-09-15T03:15:22.305Z,71.9
2018-09-15T03:20:24.741Z,71.9
2018-09-15T03:25:27.283Z,72
2018-09-15T03:30:29.612Z,72
2018-09-15T03:35:32.063Z,72
2018-09-15T03:40:34.505Z,71.9
2018-09-15T03:45:36.947Z,72
2018-09-15T03:50:39.422Z,72.1
2018-09-15T03:55:41.842Z,72.2
2018-09-15T04:00:44.266Z,72.1
2018-09-15T04:05:46.696Z,72.1
2018-09-15T04:10:49.129Z,72.2
2018-09-15T04:15:51.737Z,72.2
2018-09-15T04:20:54.132Z,72.4
2018-09-15T04:25:56.455Z,72.6
2018-09-15T04:30:58.966Z,72.8
2018-09-15T04:36:01.759Z,72.9
2018-09-15T04:41:03.836Z,73
2018-09-15T04:46:06.219Z,73.1
2018-09-15T04:51:08.652Z,73.4
2018-09-15T04:56:11.145Z,73.4
2018-09-15T05:01:13.543Z,73.5
2018-09-15T05:06:16.225Z,73.7
2018-09-15T05:11:18.427Z,73.7
2018-09-15T05:16:20.880Z,73.8
2018-09-15T05:21:23.286Z,73.8
2018-09-15T05:26:25.737Z,73.7
2018-09-15T05:31:28.213Z,73.8
2018-09-15T05:36:30.684Z,73.9
2018-09-15T05:41:33.073Z,73.8
2018-09-15T05:46:35.546Z,73.8
2018-09-15T05:51:37.946Z,73.9
2018-09-15T05:56:40.386Z,73.7
2018-09-15T06:01:42.870Z,73
2018-09-15T06:06:45.331Z,72.7
2018-09-15T06:11:47.713Z,70.8
2018-09-15T06:16:50.140Z,70.3
2018-09-15T06:21:52.594Z,70.7
2018-09-15T06:26:55.166Z,70.8
2018-09-15T06:31:57.474Z,69.9
2018-09-15T06:36:59.916Z,68.3
2018-09-15T06:42:02.359Z,67.3
2018-09-15T06:47:04.795Z,66.6
2018-09-15T06:52:07.288Z,64.9
2018-09-15T06:57:09.691Z,63.6
2018-09-15T07:02:12.114Z,64
2018-09-15T07:07:14.631Z,64.4
2018-09-15T07:12:16.993Z,63.7
2018-09-15T07:17:19.461Z,63.6
2018-09-15T07:22:21.896Z,63.2
2018-09-15T07:27:24.292Z,63
2018-09-15T07:32:26.753Z,60.9
2018-09-15T07:37:29.237Z,59.7
2018-09-15T07:42:31.657Z,56.4
2018-09-15T07:47:34.064Z,56.5
2018-09-15T07:52:36.514Z,55.6
2018-09-15T07:57:39.029Z,55.4
2018-09-15T08:02:41.392Z,55.6
2018-09-15T08:07:43.833Z,54.4
2018-09-15T08:12:46.261Z,54.8
2018-09-15T08:17:48.752Z,55.5
2018-09-15T08:22:51.305Z,54.7
2018-09-15T08:27:53.606Z,54
2018-09-15T08:32:56.071Z,54.1
2018-09-15T08:37:58.482Z,52.9
2018-09-15T08:43:00.905Z,52.5
2018-09-15T08:48:03.395Z,52
2018-09-15T08:53:05.790Z,52.3
2018-09-15T08:58:08.242Z,52.2
2018-09-15T09:03:10.882Z,52.6
2018-09-15T09:08:13.231Z,53.3
2018-09-15T09:13:15.558Z,53.5
2018-09-15T09:18:17.998Z,52.3
2018-09-15T09:23:20.427Z,52.8
2018-09-15T09:28:23.144Z,52.5
2018-09-15T09:33:25.324Z,52.6
2018-09-15T09:38:27.833Z,52.7
2018-09-15T09:43:30.265Z,52.4
2018-09-15T09:48:32.735Z,51
2018-09-15T09:53:35.077Z,50.8
2018-09-15T09:58:37.547Z,49.7
2018-09-15T10:03:39.969Z,45.8
2018-09-15T10:08:42.410Z,44.1
2018-09-15T10:13:44.850Z,43.7
2018-09-15T10:18:47.312Z,45.2
2018-09-15T10:23:49.719Z,44.8
2018-09-15T10:28:52.318Z,45.3
2018-09-15T10:33:54.625Z,43.8
2018-09-15T10:38:57.070Z,42
2018-09-15T10:43:59.639Z,42.3
2018-09-15T10:49:01.960Z,42.2
2018-09-15T10:54:04.385Z,41.8
2018-09-15T10:59:06.870Z,41.3
2018-09-15T11:04:09.260Z,41.7
2018-09-15T11:09:11.700Z,40.1
2018-09-15T11:14:14.163Z,40.2
2018-09-15T11:19:16.596Z,40.3
2018-09-15T11:24:19.032Z,40.3
2018-09-15T11:29:21.524Z,40.3
2018-09-15T11:34:23.895Z,39.5
2018-09-15T11:39:26.327Z,38.9
2018-09-15T11:44:28.970Z,36.6
2018-09-15T11:49:31.248Z,37.1
2018-09-15T11:54:33.649Z,35.2
2018-09-15T11:59:36.373Z,36.3
2018-09-15T12:04:38.547Z,34.7
2018-09-15T12:09:41.016Z,34.8
2018-09-15T12:14:43.559Z,34.2
2018-09-15T12:19:45.901Z,33.6
2018-09-15T12:29:50.895Z,31.6
2018-09-15T12:34:53.289Z,32.1
2018-09-15T12:39:55.661Z,30.4
2018-09-15T12:44:58.090Z,30.7
2018-09-15T12:50:00.549Z,30.9
2018-09-15T12:55:02.983Z,28.5
2018-09-15T13:00:05.483Z,28.9
2018-09-15T13:05:07.838Z,28.1
2018-09-15T13:10:10.831Z,26.9
2018-09-15T13:15:12.779Z,26.5
2018-09-15T13:20:15.299Z,27.1
2018-09-15T13:25:17.677Z,29.7
2018-09-15T13:30:20.095Z,29.3
2018-09-15T13:35:22.504Z,28.5
2018-09-15T13:40:24.953Z,26.7
2018-09-15T13:45:27.373Z,26
2018-09-15T13:50:29.824Z,26.8
2018-09-15T13:55:32.267Z,28.3
2018-09-15T14:00:34.697Z,27.2
2018-09-15T14:05:37.175Z,26.8
2018-09-15T14:10:39.642Z,24.4
2018-09-15T14:15:42.014Z,24.1
2018-09-15T14:20:44.466Z,23.3
2018-09-15T14:25:46.931Z,24.1
2018-09-15T14:30:49.363Z,21.7
2018-09-15T14:35:56.209Z,22.5
2018-09-15T14:40:54.324Z,22.2
2018-09-15T14:45:56.667Z,23.3
2018-09-15T14:50:59.143Z,22
2018-09-15T14:56:01.600Z,21.4
2018-09-15T15:01:04.005Z,21.8
2018-09-15T15:06:06.505Z,22.2
2018-09-15T15:11:08.890Z,21.2
2018-09-15T15:16:11.355Z,20.8
2018-09-15T15:21:13.783Z,20.8
2018-09-15T15:26:16.312Z,21.9
2018-09-15T15:31:18.655Z,24.2
2018-09-15T15:36:21.270Z,23.7
2018-09-15T15:41:23.543Z,21.7
2018-09-15T15:46:25.984Z,23
2018-09-15T15:51:28.515Z,25
2018-09-15T15:56:30.851Z,24.9
2018-09-15T16:01:33.326Z,25.3
2018-09-15T16:06:35.743Z,25.1
2018-09-15T16:11:38.286Z,25
2018-09-15T16:16:40.625Z,25.6
2018-09-15T16:21:43.078Z,26.5
2018-09-15T16:26:45.519Z,27.2
2018-09-15T16:31:47.972Z,28.2
2018-09-15T16:36:50.463Z,28.7
2018-09-15T16:41:52.851Z,29.2
2018-09-15T16:46:55.285Z,30.1
2018-09-15T16:51:57.730Z,31.1
2018-09-15T16:57:00.261Z,31.9
2018-09-15T17:02:02.627Z,33.1
2018-09-15T17:07:05.355Z,33.5
2018-09-15T17:12:07.532Z,33.9
2018-09-15T17:17:09.925Z,34.3
2018-09-15T17:22:12.387Z,35.1
2018-09-15T17:27:14.815Z,35.9
2018-09-15T17:32:17.256Z,36.1
2018-09-15T17:37:19.725Z,36.5
2018-09-15T17:42:22.169Z,36.6
2018-09-15T17:47:24.567Z,37.2
2018-09-15T17:52:27.031Z,37.7
2018-09-15T17:57:29.443Z,37.9
2018-09-15T18:02:31.939Z,38.2
2018-09-15T18:07:34.368Z,38.8
2018-09-15T18:12:36.778Z,39
2018-09-15T18:17:39.243Z,39.3
2018-09-15T18:22:41.655Z,39.6
2018-09-15T18:27:44.143Z,39.9
2018-09-15T18:32:46.529Z,40.1
2018-09-15T18:37:48.997Z,40.3
2018-09-15T18:42:51.464Z,40.6
2018-09-15T18:47:53.914Z,40.9
2018-09-15T18:52:56.356Z,41.3
2018-09-15T18:57:58.828Z,41.8
2018-09-15T19:03:01.165Z,41.9
2018-09-15T19:08:03.601Z,41.9
2018-09-15T19:13:06.183Z,42
2018-09-15T19:18:08.504Z,42.5
2018-09-15T19:23:11.018Z,42.9
2018-09-15T19:28:13.361Z,43.3
2018-09-15T19:33:15.826Z,43.5
2018-09-15T19:38:18.254Z,43.7
2018-09-15T19:43:20.724Z,44.2
2018-09-15T19:48:23.187Z,44.5
2018-09-15T19:53:25.578Z,44.4
2018-09-15T19:58:28.011Z,44.6
2018-09-15T20:03:30.471Z,44.8
2018-09-15T20:08:32.895Z,45.3
2018-09-15T20:13:35.340Z,45.6
2018-09-15T20:18:37.776Z,45.8
2018-09-15T20:23:40.282Z,46.1
2018-09-15T20:28:42.643Z,46.5
2018-09-15T20:33:45.203Z,46.7
2018-09-15T20:38:47.538Z,46.7
2018-09-15T20:43:50.004Z,47.1
2018-09-15T20:48:52.474Z,47.2
2018-09-15T20:53:54.861Z,47.4
2018-09-15T20:58:57.328Z,47.6
2018-09-15T21:03:59.740Z,47.9
2018-09-15T21:09:02.203Z,47.9
2018-09-15T21:14:04.809Z,47.9
2018-09-15T21:19:07.428Z,47.9
2018-09-15T21:24:09.527Z,47.8
2018-09-15T21:29:12.022Z,47.9
2018-09-15T21:34:14.418Z,47.9
2018-09-15T21:39:16.829Z,48
2018-09-15T21:44:19.260Z,48.1
2018-09-15T21:49:21.692Z,48.3
2018-09-15T21:54:24.148Z,48.3
2018-09-15T21:59:26.678Z,48.4
2018-09-15T22:04:29.312Z,48.5
2018-09-15T22:09:31.502Z,48.6
2018-09-15T22:14:33.941Z,48.9
2018-09-15T22:19:36.372Z,49
2018-09-15T22:24:38.820Z,49.3
2018-09-15T22:29:41.224Z,49.6
2018-09-15T22:34:43.664Z,49.7
2018-09-15T22:39:46.103Z,50
2018-09-15T22:44:48.554Z,50
2018-09-15T22:49:51.077Z,50.3
2018-09-15T22:54:53.671Z,50.4
2018-09-15T22:59:55.966Z,50.5
2018-09-15T23:04:58.323Z,50.5
2018-09-15T23:10:00.765Z,50.6
2018-09-15T23:15:03.238Z,50.8
2018-09-15T23:20:05.668Z,51
2018-09-15T23:25:08.171Z,50.9
2018-09-15T23:30:10.554Z,51
2018-09-15T23:35:13.013Z,51.3
2018-09-15T23:40:15.479Z,51.3
2018-09-15T23:45:17.820Z,51.3
2018-09-15T23:50:20.285Z,51.3
2018-09-15T23:55:22.719Z,51.3
